Fagelgracht — PBST — position and weather

sailwx.info

Track history (hours):
 
Tides and Currents Weather Stations Pressure Air Temp Water Temp Dewpoint Dewpoint Depression Visibility Wind Speed Wind Dir Waves Ship Positions

Fagelgracht

Last reported at 2018-Jan-24 09:00 UTC. Time now 2018-Jan-24 09:16 UTC.
Position N 51°16' E 004°23'.

Length 136 m; draft 8 m.

Type: Cargo ship. MMSI: 246591000.

Date/timePositionNaut miles runAvg speedWind from/ knotsBaromVisibWave heightAir tempDewpointWater temp
2018-Jan-24 09:00N 51°16' E 004°23'0 0.0
2018-Jan-24 08:30N 51°16' E 004°23'0 0.0
2018-Jan-24 08:00N 51°16' E 004°23'0 0.0
2018-Jan-24 07:30N 51°16' E 004°23'0 0.0
2018-Jan-24 07:00N 51°16' E 004°23'0 0.0
2018-Jan-24 06:30N 51°16' E 004°23'0 0.0
2018-Jan-24 06:00N 51°16' E 004°23'0 0.0
2018-Jan-24 05:30N 51°16' E 004°23'0 0.0
2018-Jan-24 05:00N 51°16' E 004°23'0 0.0
2018-Jan-24 04:30N 51°16' E 004°23'0 0.0
2018-Jan-24 04:00N 51°16' E 004°23'0 0.0
2018-Jan-24 03:24N 51°16' E 004°23'0 0.0
2018-Jan-24 03:00N 51°16' E 004°23'0 0.0
2018-Jan-24 02:30N 51°16' E 004°23'0 0.0
2018-Jan-24 02:00N 51°16' E 004°23'0 0.0
2018-Jan-24 01:30N 51°16' E 004°23'0 0.0
2018-Jan-24 01:00N 51°16' E 004°23'0 0.0
2018-Jan-24 00:30N 51°16' E 004°23'0 0.0
2018-Jan-24 00:00N 51°16' E 004°23'0 0.0
2018-Jan-23 23:30N 51°16' E 004°23'0 0.0
2018-Jan-23 23:00N 51°16' E 004°23'0 0.0
2018-Jan-23 22:30N 51°16' E 004°23'0 0.0
2018-Jan-23 22:00N 51°16' E 004°23'0 0.0
2018-Jan-23 21:27N 51°16' E 004°23'0 0.0
2018-Jan-23 21:00N 51°16' E 004°23'0 0.0
2018-Jan-23 20:30N 51°16' E 004°23'0 0.0
2018-Jan-23 20:00N 51°16' E 004°23'0 0.0
2018-Jan-23 19:30N 51°16' E 004°23'0 0.0
2018-Jan-23 19:00N 51°16' E 004°23'0 0.0
2018-Jan-23 18:30N 51°16' E 004°23'0 0.0
2018-Jan-23 18:00N 51°16' E 004°23'0 0.0
2018-Jan-23 17:30N 51°16' E 004°23'0 0.0
2018-Jan-23 17:00N 51°16' E 004°23'0 0.0
2018-Jan-23 16:30N 51°16' E 004°23'0 0.0
2018-Jan-23 16:00N 51°16' E 004°23'0 0.0
2018-Jan-23 15:30N 51°16' E 004°23'0 0.0
2018-Jan-23 15:00N 51°16' E 004°23'0 0.0
2018-Jan-23 14:30N 51°16' E 004°23'0 0.0
2018-Jan-23 14:00N 51°16' E 004°23'0 0.0
2018-Jan-23 13:30N 51°16' E 004°23'0 0.0
2018-Jan-23 13:00N 51°16' E 004°23'0 0.2
2018-Jan-23 12:30N 51°16' E 004°23'2 3.2
2018-Jan-23 12:00N 51°16' E 004°20'3 5.9
2018-Jan-23 11:30N 51°19' E 004°19'2 3.4
2018-Jan-23 11:00N 51°21' E 004°17'0 0.0
2018-Jan-23 10:30N 51°21' E 004°17'0 0.0
2018-Jan-23 10:01N 51°21' E 004°17'2 3.1
2018-Jan-23 09:30N 51°21' E 004°15'4 7.8
2018-Jan-23 09:00N 51°23' E 004°09'5 9.3
2018-Jan-23 08:30N 51°24' E 004°02'3 6.1
2018-Jan-23 08:00N 51°24' E 003°57'611.3
2018-Jan-23 07:30N 51°21' E 003°49'611.1
2018-Jan-23 07:00N 51°24' E 003°43'5 9.2
2018-Jan-23 06:30N 51°26' E 003°35'4 7.8
2018-Jan-23 06:00N 51°25' E 003°29'714.9
2018-Jan-23 05:30N 51°24' E 003°17'815.6
2018-Jan-23 05:00N 51°24' E 003°05'815.5
2018-Jan-23 04:30N 51°22' E 002°53'713.4
2018-Jan-23 04:00N 51°22' E 002°42'5 8.6
2018-Jan-23 03:29N 51°22' E 002°35'510.7
2018-Jan-23 03:00N 51°21' E 002°27'611.1
2018-Jan-23 02:30N 51°19' E 002°19'611.3
2018-Jan-23 02:00N 51°16' E 002°11'611.4
2018-Jan-23 01:30N 51°13' E 002°03'611.4
2018-Jan-23 01:00N 51°10' E 001°55'611.3
2018-Jan-23 00:30N 51°07' E 001°48'611.4
2018-Jan-23 00:00N 51°03' E 001°41'611.4
2018-Jan-22 23:30N 50°59' E 001°35'611.0
2018-Jan-22 23:00N 50°55' E 001°29'510.3
2018-Jan-22 22:30N 50°50' E 001°27'510.5
2018-Jan-22 21:59N 50°45' E 001°25'5310.1
2018-Jan-22 16:42N 50°21' E 000°09'312.7
2018-Jan-22 16:30N 50°21' E 000°05'612.8
2018-Jan-22 16:00N 50°19' W 000°04'612.9
2018-Jan-22 15:30N 50°17' W 000°14'713.0
2018-Jan-22 15:00N 50°16' W 000°24'713.3
2018-Jan-22 14:29N 50°14' W 000°34'5915.8
2018-Jan-22 10:46N 49°58' W 002°02'516.9
2018-Jan-22 10:28N 49°57' W 002°10'915.6
2018-Jan-22 09:52N 49°55' W 002°24'514.2
2018-Jan-22 09:30N 49°53' W 002°32'2812.7
2018-Jan-22 07:17N 49°41' W 003°11'8412.1
2018-Jan-22 00:19N 48°59' W 005°03'412.3
2018-Jan-22 00:00N 48°57' W 005°08'612.3
2018-Jan-21 23:30N 48°53' W 005°16'612.5
2018-Jan-21 23:00N 48°51' W 005°25'60112.3
2018-Jan-19 21:55N 39°21' W 009°51'511.3
2018-Jan-19 21:30N 39°16' W 009°51'611.5
2018-Jan-19 21:00N 39°10' W 009°51'611.5
2018-Jan-19 20:30N 39°04' W 009°51'611.6
2018-Jan-19 20:00N 38°59' W 009°51'611.2
2018-Jan-19 19:30N 38°53' W 009°51'611.4
2018-Jan-19 19:00N 38°47' W 009°51'611.5
2018-Jan-19 18:30N 38°42' W 009°51'611.6
2018-Jan-19 18:00N 38°36' W 009°49'611.5
2018-Jan-19 17:30N 38°30' W 009°48'611.4
2018-Jan-19 17:00N 38°25' W 009°46'611.3
2018-Jan-19 16:30N 38°19' W 009°45'611.1
2018-Jan-19 16:00N 38°14' W 009°43'611.1
2018-Jan-19 15:30N 38°08' W 009°41'510.8
2018-Jan-19 15:00N 38°03' W 009°39'510.5
2018-Jan-19 14:30N 37°58' W 009°38'510.5
2018-Jan-19 14:00N 37°53' W 009°37'510.7
2018-Jan-19 13:30N 37°48' W 009°35'610.7
2018-Jan-19 12:58N 37°42' W 009°33'6610.0
2018-Jan-19 06:19N 36°43' W 008°54'412.2
2018-Jan-19 06:00N 36°44' W 008°50'612.5
2018-Jan-19 05:30N 36°45' W 008°42'612.9
2018-Jan-19 05:00N 36°46' W 008°34'712.9
2018-Jan-19 04:27N 36°48' W 008°26'612.8
2018-Jan-19 04:00N 36°48' W 008°18'713.3
2018-Jan-19 03:28N 36°50' W 008°10'  
Track history (hours):
 
Tides and Currents Weather Stations Pressure Air Temp Water Temp Dewpoint Dewpoint Depression Visibility Wind Speed Wind Dir Waves Ship Positions

Fagelgracht

Last reported at 2018-Jan-24 09:00 UTC. Time now 2018-Jan-24 09:16 UTC.
Position N 51°16' E 004°23'.

Length 136 m; draft 8 m.

Type: Cargo ship. MMSI: 246591000.

Date/timePositionNaut miles runAvg speedWind from/ knotsBaromVisibWave heightAir tempDewpointWater temp
2018-Jan-24 09:00N 51°16' E 004°23'0 0.0
2018-Jan-24 08:30N 51°16' E 004°23'0 0.0
2018-Jan-24 08:00N 51°16' E 004°23'0 0.0
2018-Jan-24 07:30N 51°16' E 004°23'0 0.0
2018-Jan-24 07:00N 51°16' E 004°23'0 0.0
2018-Jan-24 06:30N 51°16' E 004°23'0 0.0
2018-Jan-24 06:00N 51°16' E 004°23'0 0.0
2018-Jan-24 05:30N 51°16' E 004°23'0 0.0
2018-Jan-24 05:00N 51°16' E 004°23'0 0.0
2018-Jan-24 04:30N 51°16' E 004°23'0 0.0
2018-Jan-24 04:00N 51°16' E 004°23'0 0.0
2018-Jan-24 03:24N 51°16' E 004°23'0 0.0
2018-Jan-24 03:00N 51°16' E 004°23'0 0.0
2018-Jan-24 02:30N 51°16' E 004°23'0 0.0
2018-Jan-24 02:00N 51°16' E 004°23'0 0.0
2018-Jan-24 01:30N 51°16' E 004°23'0 0.0
2018-Jan-24 01:00N 51°16' E 004°23'0 0.0
2018-Jan-24 00:30N 51°16' E 004°23'0 0.0
2018-Jan-24 00:00N 51°16' E 004°23'0 0.0
2018-Jan-23 23:30N 51°16' E 004°23'0 0.0
2018-Jan-23 23:00N 51°16' E 004°23'0 0.0
2018-Jan-23 22:30N 51°16' E 004°23'0 0.0
2018-Jan-23 22:00N 51°16' E 004°23'0 0.0
2018-Jan-23 21:27N 51°16' E 004°23'0 0.0
2018-Jan-23 21:00N 51°16' E 004°23'0 0.0
2018-Jan-23 20:30N 51°16' E 004°23'0 0.0
2018-Jan-23 20:00N 51°16' E 004°23'0 0.0
2018-Jan-23 19:30N 51°16' E 004°23'0 0.0
2018-Jan-23 19:00N 51°16' E 004°23'0 0.0
2018-Jan-23 18:30N 51°16' E 004°23'0 0.0
2018-Jan-23 18:00N 51°16' E 004°23'0 0.0
2018-Jan-23 17:30N 51°16' E 004°23'0 0.0
2018-Jan-23 17:00N 51°16' E 004°23'0 0.0
2018-Jan-23 16:30N 51°16' E 004°23'0 0.0
2018-Jan-23 16:00N 51°16' E 004°23'0 0.0
2018-Jan-23 15:30N 51°16' E 004°23'0 0.0
2018-Jan-23 15:00N 51°16' E 004°23'0 0.0
2018-Jan-23 14:30N 51°16' E 004°23'0 0.0
2018-Jan-23 14:00N 51°16' E 004°23'0 0.0
2018-Jan-23 13:30N 51°16' E 004°23'0 0.0
2018-Jan-23 13:00N 51°16' E 004°23'0 0.2
2018-Jan-23 12:30N 51°16' E 004°23'2 3.2
2018-Jan-23 12:00N 51°16' E 004°20'3 5.9
2018-Jan-23 11:30N 51°19' E 004°19'2 3.4
2018-Jan-23 11:00N 51°21' E 004°17'0 0.0
2018-Jan-23 10:30N 51°21' E 004°17'0 0.0
2018-Jan-23 10:01N 51°21' E 004°17'2 3.1
2018-Jan-23 09:30N 51°21' E 004°15'4 7.8
2018-Jan-23 09:00N 51°23' E 004°09'5 9.3
2018-Jan-23 08:30N 51°24' E 004°02'3 6.1
2018-Jan-23 08:00N 51°24' E 003°57'611.3
2018-Jan-23 07:30N 51°21' E 003°49'611.1
2018-Jan-23 07:00N 51°24' E 003°43'5 9.2
2018-Jan-23 06:30N 51°26' E 003°35'4 7.8
2018-Jan-23 06:00N 51°25' E 003°29'714.9
2018-Jan-23 05:30N 51°24' E 003°17'815.6
2018-Jan-23 05:00N 51°24' E 003°05'815.5
2018-Jan-23 04:30N 51°22' E 002°53'713.4
2018-Jan-23 04:00N 51°22' E 002°42'5 8.6
2018-Jan-23 03:29N 51°22' E 002°35'510.7
2018-Jan-23 03:00N 51°21' E 002°27'611.1
2018-Jan-23 02:30N 51°19' E 002°19'611.3
2018-Jan-23 02:00N 51°16' E 002°11'611.4
2018-Jan-23 01:30N 51°13' E 002°03'611.4
2018-Jan-23 01:00N 51°10' E 001°55'611.3
2018-Jan-23 00:30N 51°07' E 001°48'611.4
2018-Jan-23 00:00N 51°03' E 001°41'611.4
2018-Jan-22 23:30N 50°59' E 001°35'611.0
2018-Jan-22 23:00N 50°55' E 001°29'510.3
2018-Jan-22 22:30N 50°50' E 001°27'510.5
2018-Jan-22 21:59N 50°45' E 001°25'5310.1
2018-Jan-22 16:42N 50°21' E 000°09'312.7
2018-Jan-22 16:30N 50°21' E 000°05'612.8
2018-Jan-22 16:00N 50°19' W 000°04'612.9
2018-Jan-22 15:30N 50°17' W 000°14'713.0
2018-Jan-22 15:00N 50°16' W 000°24'713.3
2018-Jan-22 14:29N 50°14' W 000°34'5915.8
2018-Jan-22 10:46N 49°58' W 002°02'516.9
2018-Jan-22 10:28N 49°57' W 002°10'915.6
2018-Jan-22 09:52N 49°55' W 002°24'514.2
2018-Jan-22 09:30N 49°53' W 002°32'2812.7
2018-Jan-22 07:17N 49°41' W 003°11'8412.1
2018-Jan-22 00:19N 48°59' W 005°03'412.3
2018-Jan-22 00:00N 48°57' W 005°08'612.3
2018-Jan-21 23:30N 48°53' W 005°16'612.5
2018-Jan-21 23:00N 48°51' W 005°25'60112.3
2018-Jan-19 21:55N 39°21' W 009°51'511.3
2018-Jan-19 21:30N 39°16' W 009°51'611.5
2018-Jan-19 21:00N 39°10' W 009°51'611.5
2018-Jan-19 20:30N 39°04' W 009°51'611.6
2018-Jan-19 20:00N 38°59' W 009°51'611.2
2018-Jan-19 19:30N 38°53' W 009°51'611.4
2018-Jan-19 19:00N 38°47' W 009°51'611.5
2018-Jan-19 18:30N 38°42' W 009°51'611.6
2018-Jan-19 18:00N 38°36' W 009°49'611.5
2018-Jan-19 17:30N 38°30' W 009°48'611.4
2018-Jan-19 17:00N 38°25' W 009°46'611.3
2018-Jan-19 16:30N 38°19' W 009°45'611.1
2018-Jan-19 16:00N 38°14' W 009°43'611.1
2018-Jan-19 15:30N 38°08' W 009°41'510.8
2018-Jan-19 15:00N 38°03' W 009°39'510.5
2018-Jan-19 14:30N 37°58' W 009°38'510.5
2018-Jan-19 14:00N 37°53' W 009°37'510.7
2018-Jan-19 13:30N 37°48' W 009°35'610.7
2018-Jan-19 12:58N 37°42' W 009°33'6610.0
2018-Jan-19 06:19N 36°43' W 008°54'412.2
2018-Jan-19 06:00N 36°44' W 008°50'612.5
2018-Jan-19 05:30N 36°45' W 008°42'612.9
2018-Jan-19 05:00N 36°46' W 008°34'712.9
2018-Jan-19 04:27N 36°48' W 008°26'612.8
2018-Jan-19 04:00N 36°48' W 008°18'713.3
2018-Jan-19 03:28N 36°50' W 008°10'  

Dump ship's entire track history